Time;durP1;ratioP1;P1;durP2;ratioP2;P2;SDS_P1;SDS_P2;PMS_P1;PMS_P2;Temp;Humidity;BMP_temperature;BMP_pressure;BME280_temperature;BME280_humidity;BME280_pressure;Samples;Min_cycle;Max_cycle;Signal;HPM_P1;HPM_P2
2022/11/14 00:01:52;;;;;;;8.90;5.60;;;;;;;16.16;71.76;101722.78;4787481;29;20042;-83
2022/11/14 00:05:15;;;;;;;8.30;5.55;;;;;;;16.15;71.82;101721.03;4809935;29;20103;-83
2022/11/14 00:09:04;;;;;;;9.10;5.90;;;;;;;16.14;71.81;101719.31;4772083;30;20044;-83
2022/11/14 00:11:57;;;;;;;8.10;5.20;;;;;;;16.15;71.69;101718.44;4827250;29;20019;-83
2022/11/14 00:18:52;;;;;;;9.02;5.70;;;;;;;16.15;71.81;101715.84;4845968;29;20061;-83
2022/11/14 00:25:47;;;;;;;8.52;5.30;;;;;;;16.14;72.03;101708.06;4790600;30;20042;-83
2022/11/14 00:29:07;;;;;;;8.00;5.28;;;;;;;16.12;71.51;101700.25;4737667;30;20021;-83
2022/11/14 00:35:06;;;;;;;8.68;5.40;;;;;;;16.13;71.78;101707.16;4736643;30;20048;-83
2022/11/14 00:41:19;;;;;;;7.00;4.55;;;;;;;16.12;71.47;101707.16;4717553;30;20044;-82
2022/11/14 00:44:32;;;;;;;6.78;4.90;;;;;;;16.12;71.40;101701.97;4699716;30;20189;-82
2022/11/14 00:50:14;;;;;;;6.88;4.90;;;;;;;16.12;71.29;101700.25;4699733;30;20082;-83
2022/11/14 00:53:22;;;;;;;7.57;5.07;;;;;;;16.11;71.45;101693.28;4686530;30;20049;-82
2022/11/14 00:56:28;;;;;;;7.38;5.20;;;;;;;16.11;71.35;101688.09;4679687;30;20075;-82
2022/11/14 00:59:19;;;;;;;7.03;4.93;;;;;;;16.11;71.41;101693.28;4668796;30;20049;-82
2022/11/14 01:02:11;;;;;;;9.57;5.20;;;;;;;16.10;71.33;101683.78;4703574;30;20036;-82
2022/11/14 01:04:55;;;;;;;7.90;4.78;;;;;;;16.11;71.49;101684.63;4704775;30;20033;-82
2022/11/14 01:07:30;;;;;;;6.80;4.63;;;;;;;16.09;71.43;101673.34;4702848;30;20049;-82
2022/11/14 01:10:01;;;;;;;6.95;5.18;;;;;;;16.09;71.47;101679.44;4712345;30;20045;-82
2022/11/14 01:12:27;;;;;;;8.27;5.18;;;;;;;16.09;71.13;101676.84;4697468;30;20044;-82
2022/11/14 01:15:16;;;;;;;7.13;4.90;;;;;;;16.09;71.26;101676.84;4710986;30;20064;-82
2022/11/14 01:17:58;;;;;;;9.07;4.80;;;;;;;16.08;71.18;101671.63;4710631;30;20054;-82
2022/11/14 01:20:31;;;;;;;7.82;5.15;;;;;;;16.09;71.27;101670.75;4712144;30;20061;-82
2022/11/14 01:22:58;;;;;;;6.68;4.97;;;;;;;16.09;71.28;101665.56;4728932;30;20104;-82
2022/11/14 01:25:32;;;;;;;6.60;5.07;;;;;;;16.08;71.35;101663.84;4747145;30;20139;-82
2022/11/14 01:28:01;;;;;;;8.32;5.07;;;;;;;16.07;71.19;101660.38;4760970;30;20040;-82
2022/11/14 01:30:29;;;;;;;8.30;4.97;;;;;;;16.06;71.34;101652.56;4746930;30;20125;-82
2022/11/14 01:32:56;;;;;;;6.60;4.80;;;;;;;16.07;71.14;101657.78;4758243;29;20039;-82
2022/11/14 01:35:24;;;;;;;6.00;4.97;;;;;;;16.05;71.18;101656.91;4818341;29;20114;-82
2022/11/14 01:37:53;;;;;;;5.80;4.13;;;;;;;16.04;71.19;101653.41;4803059;29;20074;-82
2022/11/14 01:40:23;;;;;;;7.30;4.50;;;;;;;16.06;70.80;101656.03;4816483;29;20107;-82
2022/11/14 01:43:26;;;;;;;6.70;4.90;;;;;;;16.04;71.07;101650.81;4803883;29;20042;-82
2022/11/14 01:46:22;;;;;;;5.90;4.65;;;;;;;16.06;71.19;101644.78;4828592;29;20051;-82
2022/11/14 01:49:10;;;;;;;6.65;4.78;;;;;;;16.06;71.08;101648.25;4837677;29;20045;-82
2022/11/14 01:52:09;;;;;;;5.88;4.75;;;;;;;16.04;71.00;101636.97;4838768;29;20520;-82
2022/11/14 01:54:44;;;;;;;5.80;4.60;;;;;;;16.04;71.14;101632.63;4822799;29;20046;-82
2022/11/14 01:57:17;;;;;;;7.45;5.00;;;;;;;16.03;71.02;101636.09;4819545;29;20099;-82
2022/11/14 01:59:53;;;;;;;6.47;5.13;;;;;;;16.04;71.06;101629.19;4804920;29;20117;-82
2022/11/14 02:02:27;;;;;;;6.93;4.70;;;;;;;16.03;71.25;101625.72;4820489;29;20085;-82
2022/11/14 02:04:58;;;;;;;6.65;4.72;;;;;;;16.01;70.91;101617.03;4819766;29;20072;-82
2022/11/14 02:07:31;;;;;;;5.90;4.90;;;;;;;16.01;70.97;101611.00;4815967;29;20054;-82
2022/11/14 02:10:01;;;;;;;6.20;4.72;;;;;;;16.02;70.99;101603.19;4788530;29;20133;-82
2022/11/14 02:12:38;;;;;;;6.00;4.60;;;;;;;16.01;70.75;101606.66;4817750;29;20048;-82
2022/11/14 02:15:17;;;;;;;5.68;4.47;;;;;;;16.01;70.97;101605.81;4834746;29;20046;-82
2022/11/14 02:17:55;;;;;;;6.55;5.00;;;;;;;16.01;71.06;101595.41;4834066;29;20049;-82
2022/11/14 02:20:49;;;;;;;6.43;5.22;;;;;;;16.01;71.16;101596.28;4834473;29;20042;-82
2022/11/14 02:23:36;;;;;;;6.43;4.95;;;;;;;16.02;70.70;101592.81;4778845;30;20028;-82
2022/11/14 02:26:05;;;;;;;6.78;4.70;;;;;;;15.99;70.82;101582.41;4778995;30;20078;-82
2022/11/14 02:28:41;;;;;;;6.18;4.78;;;;;;;16.00;70.92;101576.38;4764320;30;20052;-82
2022/11/14 02:31:16;;;;;;;6.75;4.78;;;;;;;16.00;70.83;101578.09;4780160;30;20048;-82
2022/11/14 02:34:03;;;;;;;6.00;4.90;;;;;;;15.98;70.85;101565.09;4780616;30;20507;-82
2022/11/14 02:36:55;;;;;;;6.90;5.13;;;;;;;16.00;70.78;101570.28;4746189;30;20069;-82
2022/11/14 02:39:22;;;;;;;6.38;5.00;;;;;;;15.98;70.72;101562.50;4715666;30;20060;-82
2022/11/14 02:41:50;;;;;;;7.78;5.30;;;;;;;15.99;70.66;101561.66;4732089;30;20041;-82
2022/11/14 02:44:21;;;;;;;5.82;4.88;;;;;;;15.97;70.47;101560.75;4746819;30;20056;-82
2022/11/14 02:47:27;;;;;;;6.78;5.07;;;;;;;15.99;70.89;101553.00;4742592;30;20041;-82
2022/11/14 02:50:03;;;;;;;6.40;5.18;;;;;;;15.98;70.62;101546.94;4744211;30;20088;-82
2022/11/14 02:52:32;;;;;;;7.00;5.57;;;;;;;15.99;70.60;101542.59;4743330;30;20107;-82
2022/11/14 02:55:09;;;;;;;7.22;5.20;;;;;;;15.98;70.61;101543.44;4756973;30;20064;-82
2022/11/14 02:57:42;;;;;;;6.78;5.30;;;;;;;15.97;70.83;101534.78;4779738;30;20047;-82
2022/11/14 03:00:29;;;;;;;6.38;4.82;;;;;;;15.97;70.77;101544.31;4783121;30;20043;-82
2022/11/14 03:06:41;;;;;;;6.50;5.10;;;;;;;15.97;70.67;101545.19;4786031;29;20165;-83
2022/11/14 03:09:55;;;;;;;8.00;5.68;;;;;;;15.94;70.80;101534.78;4829102;29;20035;-83
2022/11/14 03:16:16;;;;;;;6.57;5.30;;;;;;;15.95;70.18;101530.47;4838310;29;20057;-83
2022/11/14 03:22:25;;;;;;;7.25;5.45;;;;;;;15.96;70.36;101527.00;4840713;29;20187;-83
2022/11/14 03:28:53;;;;;;;6.43;5.65;;;;;;;15.94;70.44;101521.81;4746466;30;20510;-82
2022/11/14 03:31:48;;;;;;;7.07;5.50;;;;;;;15.93;70.42;101520.06;4728813;30;20489;-82
2022/11/14 03:34:23;;;;;;;6.88;5.75;;;;;;;15.92;70.25;101523.53;4743142;30;20064;-82
2022/11/14 03:37:14;;;;;;;6.85;5.40;;;;;;;15.93;70.31;101521.78;4740704;30;20056;-82
2022/11/14 03:39:42;;;;;;;7.90;5.82;;;;;;;15.91;70.23;101513.13;4725265;30;20045;-82
2022/11/14 03:42:42;;;;;;;8.18;5.85;;;;;;;15.92;70.34;101517.47;4744881;30;20041;-82
2022/11/14 03:45:25;;;;;;;7.05;5.70;;;;;;;15.91;70.26;101515.72;4745940;30;20524;-82
2022/11/14 03:48:03;;;;;;;8.65;6.10;;;;;;;15.90;70.23;101521.78;4733551;30;20481;-82
2022/11/14 03:50:40;;;;;;;6.97;5.90;;;;;;;15.91;70.18;101524.34;4740404;30;20066;-82
2022/11/14 03:53:18;;;;;;;6.72;5.47;;;;;;;15.91;70.06;101526.09;4741861;30;20033;-83
2022/11/14 03:56:42;;;;;;;7.13;5.65;;;;;;;15.91;70.26;101523.50;4684845;30;20033;-83
2022/11/14 03:59:31;;;;;;;7.55;6.00;;;;;;;15.89;69.97;101515.69;4742319;30;20133;-82
2022/11/14 04:02:56;;;;;;;6.53;5.57;;;;;;;15.90;70.30;101511.38;4750738;30;20124;-82
2022/11/14 04:05:44;;;;;;;7.55;6.00;;;;;;;15.88;70.17;101508.78;4750424;30;20098;-83
2022/11/14 04:08:28;;;;;;;7.35;6.55;;;;;;;15.90;70.38;101501.88;4745825;30;20091;-81
2022/11/14 04:10:57;;;;;;;7.35;6.32;;;;;;;15.89;70.21;101496.66;4745104;30;20041;-82
2022/11/14 04:13:33;;;;;;;7.93;6.50;;;;;;;15.89;69.96;101500.13;4744094;30;20048;-82
2022/11/14 04:16:02;;;;;;;7.15;6.30;;;;;;;15.88;69.95;101498.38;4743629;30;20056;-82
2022/11/14 04:18:27;;;;;;;7.60;6.15;;;;;;;15.89;69.96;101500.13;4741551;30;20114;-81
2022/11/14 04:20:59;;;;;;;7.78;6.57;;;;;;;15.87;70.03;101491.44;4742591;30;20485;-81
2022/11/14 04:23:25;;;;;;;8.88;6.35;;;;;;;15.87;69.89;101488.00;4740732;30;20041;-81
2022/11/14 04:25:55;;;;;;;8.00;6.70;;;;;;;15.88;69.81;101480.22;4741234;30;20052;-81
2022/11/14 04:28:21;;;;;;;8.25;6.50;;;;;;;15.88;70.00;101482.81;4761802;30;20048;-81
2022/11/14 04:30:49;;;;;;;7.65;6.82;;;;;;;15.86;69.89;101479.34;4813448;29;20502;-81
2022/11/14 04:33:15;;;;;;;7.88;6.68;;;;;;;15.86;69.76;101471.56;4830883;29;20042;-81
2022/11/14 04:35:41;;;;;;;7.28;6.22;;;;;;;15.87;69.93;101472.41;4835300;29;20133;-81
2022/11/14 04:38:10;;;;;;;8.73;6.63;;;;;;;15.86;70.16;101468.97;4835224;29;20109;-81
2022/11/14 04:40:35;;;;;;;9.00;7.20;;;;;;;15.86;69.86;101473.28;4816235;29;20038;-81
2022/11/14 04:43:05;;;;;;;7.25;6.30;;;;;;;15.84;70.12;101462.88;4830968;29;20068;-81
2022/11/14 04:45:32;;;;;;;8.30;6.68;;;;;;;15.85;70.07;101469.78;4832241;29;20046;-82
2022/11/14 04:47:59;;;;;;;7.05;6.20;;;;;;;15.84;69.87;101466.34;4802379;29;20458;-82
2022/11/14 04:50:30;;;;;;;7.45;6.40;;;;;;;15.84;69.83;101455.09;4831367;29;20122;-81
2022/11/14 04:52:57;;;;;;;7.03;6.22;;;;;;;15.83;69.77;101459.44;4816251;29;20069;-81
2022/11/14 04:55:30;;;;;;;8.30;6.88;;;;;;;15.82;69.95;101452.47;4831377;29;20081;-81
2022/11/14 04:58:03;;;;;;;7.65;6.53;;;;;;;15.82;70.02;101452.47;4819093;29;20379;-82
2022/11/14 05:00:37;;;;;;;6.93;6.22;;;;;;;15.83;69.81;101451.66;4816807;29;20041;-82
2022/11/14 05:03:53;;;;;;;8.65;6.60;;;;;;;15.81;69.92;101447.31;4816776;29;20038;-82
2022/11/14 05:06:39;;;;;;;8.88;7.28;;;;;;;15.82;70.00;101439.50;4842355;29;20073;-82
2022/11/14 05:09:05;;;;;;;7.38;6.35;;;;;;;15.81;69.76;101440.38;4832025;29;20039;-81
2022/11/14 05:11:32;;;;;;;8.45;6.90;;;;;;;15.81;69.79;101440.38;4829603;29;20046;-81
2022/11/14 05:14:03;;;;;;;7.50;6.70;;;;;;;15.82;69.99;101434.31;4815165;29;20042;-81
2022/11/14 05:16:29;;;;;;;9.48;7.28;;;;;;;15.82;69.82;101438.66;4831719;29;20058;-81
2022/11/14 05:19:04;;;;;;;7.63;6.70;;;;;;;15.81;69.90;101430.00;4814226;29;20042;-82
2022/11/14 05:21:33;;;;;;;9.43;6.93;;;;;;;15.81;69.91;101435.19;4832365;29;20045;-81
2022/11/14 05:24:06;;;;;;;8.13;6.97;;;;;;;15.81;69.62;101429.13;4833048;29;20049;-82
2022/11/14 05:26:34;;;;;;;7.80;6.97;;;;;;;15.79;69.91;101426.53;4820355;29;20457;-82
2022/11/14 05:29:02;;;;;;;7.95;6.97;;;;;;;15.81;69.74;101421.34;4821252;29;20042;-82
2022/11/14 05:31:59;;;;;;;8.77;7.35;;;;;;;15.80;69.60;101411.81;4822551;29;20096;-82
2022/11/14 05:34:25;;;;;;;8.18;7.00;;;;;;;15.79;69.51;101413.53;4835676;29;20049;-82
2022/11/14 05:37:03;;;;;;;7.95;7.00;;;;;;;15.79;69.63;101410.94;4838063;29;20038;-82
2022/11/14 05:39:31;;;;;;;8.43;6.53;;;;;;;15.79;69.72;101418.72;4827765;29;20050;-82
2022/11/14 05:41:57;;;;;;;10.38;6.75;;;;;;;15.77;69.72;101412.66;4836326;29;20044;-82
2022/11/14 05:44:51;;;;;;;8.35;7.03;;;;;;;15.78;69.58;101414.38;4818469;29;20038;-81
2022/11/14 05:47:28;;;;;;;7.65;6.57;;;;;;;15.78;69.54;101414.38;4814489;29;20501;-82
2022/11/14 05:59:15;;;;;;;9.10;7.40;;;;;;;15.76;69.76;101403.13;4836071;29;20110;-82
2022/11/14 06:01:51;;;;;;;8.70;7.45;;;;;;;15.76;69.65;101407.47;4833342;29;20050;-81
2022/11/14 06:04:17;;;;;;;7.97;6.68;;;;;;;15.77;69.69;101406.63;4825454;29;20046;-82
2022/11/14 06:07:05;;;;;;;8.48;7.25;;;;;;;15.77;69.58;101404.03;4842782;29;20047;-82
2022/11/14 06:09:31;;;;;;;10.45;7.68;;;;;;;15.75;71.39;101397.94;4818371;29;20098;-79
2022/11/14 06:12:19;;;;;;;15.77;9.10;;;;;;;15.95;67.46;101388.56;4820967;29;20122;-82
2022/11/14 06:15:08;;;;;;;14.00;8.95;;;;;;;15.97;66.93;101392.03;4841831;29;20022;-84
2022/11/14 06:17:34;;;;;;;16.33;8.70;;;;;;;15.95;68.10;101393.75;4834313;29;20418;-79
2022/11/14 06:19:59;;;;;;;14.98;8.50;;;;;;;15.95;67.41;101385.09;4798747;29;20050;-80
2022/11/14 06:22:32;;;;;;;12.63;8.13;;;;;;;15.92;67.20;101385.94;4813821;29;20119;-82
2022/11/14 06:24:57;;;;;;;15.17;7.80;;;;;;;15.89;67.12;101390.25;4813351;29;20042;-80
2022/11/14 06:27:23;;;;;;;11.45;7.93;;;;;;;15.88;67.04;101391.97;4833431;29;20133;-80
2022/11/14 06:29:49;;;;;;;12.73;7.60;;;;;;;15.87;67.15;101394.56;4829626;29;20441;-81
2022/11/14 06:32:22;;;;;;;13.10;7.65;;;;;;;15.87;67.06;101391.97;4784050;29;20057;-81
2022/11/14 06:34:47;;;;;;;15.05;7.75;;;;;;;15.84;67.13;101393.66;4810960;29;20107;-79
2022/11/14 06:37:13;;;;;;;9.73;7.15;;;;;;;15.87;67.07;101394.56;4795901;29;20451;-79
2022/11/14 06:39:38;;;;;;;9.90;7.50;;;;;;;15.87;67.01;101391.97;4798676;29;20129;-79
2022/11/14 06:42:05;;;;;;;11.00;7.60;;;;;;;15.90;66.46;101395.44;4816012;29;20038;-81
2022/11/14 06:44:30;;;;;;;10.40;7.53;;;;;;;15.90;66.88;101398.06;4813319;29;20038;-81
2022/11/14 06:46:56;;;;;;;11.25;7.75;;;;;;;15.91;66.71;101393.72;4828700;29;20394;-80
2022/11/14 06:49:23;;;;;;;16.50;8.30;;;;;;;15.91;66.88;101404.97;4829852;29;20053;-81
2022/11/14 06:51:50;;;;;;;17.50;9.15;;;;;;;15.89;67.16;101400.63;4831081;29;20117;-80
2022/11/14 06:54:15;;;;;;;19.23;9.32;;;;;;;15.90;66.97;101400.66;4829680;29;20042;-80
2022/11/14 06:56:47;;;;;;;16.65;8.77;;;;;;;15.90;66.69;101397.19;4838592;29;20056;-83
2022/11/14 06:59:51;;;;;;;13.77;8.32;;;;;;;15.89;66.55;101396.28;4837316;29;20444;-83
2022/11/14 07:02:59;;;;;;;15.97;8.13;;;;;;;15.91;66.79;101393.72;4806155;30;20039;-83
2022/11/14 07:09:10;;;;;;;15.23;9.00;;;;;;;15.94;66.34;101398.91;4802134;29;20097;-83
2022/11/14 07:12:11;;;;;;;12.98;8.60;;;;;;;15.97;66.35;101398.94;4807620;30;20020;-83
2022/11/14 07:18:48;;;;;;;15.23;8.55;;;;;;;15.94;66.44;101393.72;4805795;29;20063;-83
2022/11/14 07:21:37;;;;;;;19.77;14.85;;;;;;;15.70;64.51;101402.19;4804500;29;20561;-83
2022/11/14 07:24:40;;;;;;;17.98;11.20;;;;;;;15.69;66.13;101388.34;4802422;30;20043;-84
2022/11/14 07:27:08;;;;;;;16.60;12.05;;;;;;;15.69;65.46;101393.53;4775785;29;20113;-79
2022/11/14 07:29:33;;;;;;;15.93;11.30;;;;;;;15.69;65.01;101405.66;4760471;29;20130;-80
2022/11/14 07:31:59;;;;;;;13.70;11.23;;;;;;;15.70;65.10;101403.06;4775217;30;20198;-80
2022/11/14 07:34:24;;;;;;;15.45;10.80;;;;;;;15.73;65.49;101402.25;4790295;29;20043;-80
2022/11/14 07:36:50;;;;;;;15.18;10.88;;;;;;;15.74;65.63;101397.09;4774156;30;20086;-80
2022/11/14 07:39:16;;;;;;;15.90;10.38;;;;;;;15.74;65.80;101397.09;4777612;30;20039;-80
2022/11/14 07:41:42;;;;;;;14.05;10.05;;;;;;;15.74;65.73;101397.09;4795839;30;20093;-81
2022/11/14 07:44:08;;;;;;;14.27;9.70;;;;;;;15.75;65.72;101403.13;4797854;30;20047;-81
2022/11/14 07:46:33;;;;;;;12.35;9.48;;;;;;;15.76;65.52;101407.47;4799688;29;20073;-80
2022/11/14 07:48:59;;;;;;;12.30;8.57;;;;;;;15.76;65.19;101399.66;4783931;30;20044;-81
2022/11/14 07:51:24;;;;;;;14.77;8.90;;;;;;;15.76;65.44;101390.16;4802288;29;20407;-80
2022/11/14 07:53:52;;;;;;;11.88;9.00;;;;;;;15.76;65.59;101394.47;4816481;29;20053;-80
2022/11/14 07:56:19;;;;;;;13.63;9.25;;;;;;;15.75;65.25;101393.63;4838399;29;20038;-82
2022/11/14 07:58:44;;;;;;;11.35;8.52;;;;;;;15.79;65.39;101394.53;4839310;29;20101;-81
2022/11/14 08:01:11;;;;;;;11.57;8.75;;;;;;;15.80;65.46;101399.69;4838631;29;20061;-80
2022/11/14 08:03:45;;;;;;;10.13;8.52;;;;;;;15.78;65.19;101398.81;4838325;29;20068;-81
2022/11/14 08:06:12;;;;;;;11.43;8.50;;;;;;;15.80;65.42;101397.09;4838222;29;20098;-80
2022/11/14 08:08:38;;;;;;;12.57;8.80;;;;;;;15.78;65.34;101392.75;4838524;29;20037;-81
2022/11/14 08:11:05;;;;;;;10.73;8.52;;;;;;;15.77;65.40;101391.91;4837915;29;20129;-82
2022/11/14 08:13:30;;;;;;;13.10;8.48;;;;;;;15.78;65.19;101385.84;4823155;29;20057;-80
2022/11/14 08:15:56;;;;;;;12.20;8.80;;;;;;;15.80;65.15;101376.34;4823055;29;20042;-81
2022/11/14 08:18:21;;;;;;;11.55;8.25;;;;;;;15.82;65.72;101371.16;4796107;29;20087;-81
2022/11/14 08:20:47;;;;;;;10.68;8.07;;;;;;;15.86;65.93;101375.53;4784625;30;20137;-81
2022/11/14 12:05:31;;;;;;;5.20;4.70;;;;;;;16.12;63.77;101182.69;4901287;24;20046;-85
2022/11/14 12:34:00;;;;;;;6.32;5.03;;;;;;;16.18;63.46;101146.34;4964934;24;20079;-87
2022/11/14 12:36:34;;;;;;;5.45;4.70;;;;;;;16.18;63.32;101152.41;4833742;29;20018;-86
2022/11/14 12:39:01;;;;;;;5.13;4.63;;;;;;;16.19;63.62;101146.34;4834194;29;20014;-86
2022/11/14 12:41:33;;;;;;;4.85;4.35;;;;;;;16.20;63.38;101147.19;4834164;29;20042;-87
2022/11/14 13:25:22;;;;;;;4.93;4.43;;;;;;;16.30;63.19;101101.34;5168401;24;20453;-86
2022/11/14 13:27:48;;;;;;;4.57;3.90;;;;;;;16.29;63.57;101102.19;4799944;29;20055;-86
2022/11/14 13:30:14;;;;;;;4.95;4.35;;;;;;;16.29;63.32;101099.59;5119861;24;20057;-87
2022/11/14 13:32:40;;;;;;;4.90;4.03;;;;;;;16.29;63.18;101094.38;4848634;29;20042;-86
2022/11/14 14:01:28;;;;;;;4.70;3.85;;;;;;;16.30;63.03;101064.97;5854511;24;20021;-84
2022/11/14 14:29:42;;;;;;;4.80;4.10;;;;;;;16.29;62.83;101069.31;5866562;24;20739;31
2022/11/14 14:32:17;;;;;;;5.07;3.85;;;;;;;16.30;62.79;101075.38;4790724;30;20089;-85
2022/11/14 14:34:43;;;;;;;3.90;3.50;;;;;;;16.28;62.84;101080.56;4777554;30;20031;-86
2022/11/14 14:37:23;;;;;;;4.22;3.63;;;;;;;16.28;62.85;101083.16;4761981;30;20036;-86
2022/11/14 14:40:00;;;;;;;4.57;3.65;;;;;;;16.29;62.89;101071.03;4777662;30;20034;-87
2022/11/14 14:52:44;;;;;;;4.60;3.60;;;;;;;16.28;62.87;101071.91;4827497;29;20088;-86
2022/11/14 14:55:32;;;;;;;4.40;3.95;;;;;;;16.25;62.91;101060.66;4814045;29;20063;-86
2022/11/14 14:58:15;;;;;;;4.47;3.97;;;;;;;16.25;63.03;101058.06;5227660;24;21075;-84
2022/11/14 15:00:51;;;;;;;5.15;4.38;;;;;;;16.25;62.79;101052.84;4828965;29;20056;-85
2022/11/14 15:08:30;;;;;;;4.70;4.22;;;;;;;16.25;62.72;101058.06;5217263;24;20062;-87
2022/11/14 15:18:43;;;;;;;5.60;5.00;;;;;;;16.27;62.49;101070.19;5178389;24;20046;-86
2022/11/14 15:21:28;;;;;;;5.47;4.85;;;;;;;16.25;62.68;101065.84;4848945;29;20045;-86
2022/11/14 15:24:24;;;;;;;5.55;5.05;;;;;;;16.24;62.77;101052.84;4849254;29;20034;-86
2022/11/14 15:52:01;;;;;;;6.00;5.40;;;;;;;16.20;62.52;101052.00;5773172;24;20741;-86
2022/11/14 16:20:44;;;;;;;6.88;6.18;;;;;;;16.19;62.17;101039.88;5604591;24;20148;-85
2022/11/14 17:22:06;;;;;;;8.45;7.13;;;;;;;16.22;61.66;101020.81;5590055;24;20069;-84
2022/11/14 18:23:09;;;;;;;8.52;7.72;;;;;;;16.19;60.73;100995.72;5475606;24;20063;-84
2022/11/14 18:31:25;;;;;;;8.50;7.60;;;;;;;16.17;61.20;100971.50;5241369;24;20414;-86
2022/11/14 18:41:26;;;;;;;8.65;7.70;;;;;;;16.15;61.30;100986.22;4810461;30;20033;-86
2022/11/14 19:06:19;;;;;;;7.97;6.75;;;;;;;16.28;61.71;100955.91;4826350;29;20100;-84
2022/11/14 19:09:08;;;;;;;8.35;6.45;;;;;;;16.31;61.88;100955.03;4822446;29;20043;-83
2022/11/14 19:24:49;;;;;;;7.90;7.10;;;;;;;16.34;61.67;100953.28;5273175;24;20067;-82
2022/11/14 19:29:50;;;;;;;13.20;7.45;;;;;;;16.36;62.89;100961.94;5670346;24;20135;-81
2022/11/14 19:32:16;;;;;;;12.93;7.80;;;;;;;16.33;62.98;100963.69;4806306;29;20093;-82
2022/11/14 19:34:42;;;;;;;10.57;7.30;;;;;;;16.33;62.84;100963.69;4825979;29;20039;-81
2022/11/14 19:37:07;;;;;;;12.23;7.43;;;;;;;16.32;63.07;100972.34;4802196;29;20055;-80
2022/11/14 19:39:32;;;;;;;8.77;6.80;;;;;;;16.35;63.15;100969.72;4812096;29;20371;-80
2022/11/14 19:41:59;;;;;;;8.63;6.65;;;;;;;16.35;63.31;100977.53;4794750;29;20058;-81
2022/11/14 19:44:27;;;;;;;8.43;6.93;;;;;;;16.36;63.57;100989.66;4806789;29;20176;-82
2022/11/14 19:46:52;;;;;;;8.38;6.10;;;;;;;16.36;63.38;100982.72;4818190;29;20122;-79
2022/11/14 19:49:18;;;;;;;10.05;6.43;;;;;;;16.40;63.39;100981.00;4794812;29;20564;-78
2022/11/14 19:51:44;;;;;;;12.15;6.10;;;;;;;16.43;63.09;100986.19;4781948;29;20486;-79
2022/11/14 19:54:10;;;;;;;6.95;6.10;;;;;;;16.45;63.15;100971.44;4813104;29;20095;-76
2022/11/14 19:56:35;;;;;;;9.85;5.95;;;;;;;16.47;63.37;100968.84;4780736;29;20088;-78
2022/11/14 19:59:01;;;;;;;6.57;5.85;;;;;;;16.47;63.17;100968.84;4797465;29;20069;-77
2022/11/14 20:01:27;;;;;;;7.38;5.78;;;;;;;16.46;63.59;100978.34;4779411;29;20043;-77
2022/11/14 20:03:58;;;;;;;6.72;5.50;;;;;;;16.47;63.56;100981.84;4793864;29;20035;-78
2022/11/14 20:06:33;;;;;;;6.43;5.72;;;;;;;16.44;63.81;100972.34;4792874;29;20070;-78
2022/11/14 20:09:05;;;;;;;5.95;5.32;;;;;;;16.42;63.59;100974.94;4806451;29;20100;-78
2022/11/14 20:11:31;;;;;;;9.18;5.63;;;;;;;16.40;63.58;100968.88;4791432;29;20087;-78
2022/11/14 20:13:57;;;;;;;7.05;5.65;;;;;;;16.39;63.72;100958.47;4792572;29;20047;-78
2022/11/14 20:16:26;;;;;;;7.10;5.88;;;;;;;16.37;63.55;100955.88;4778386;29;20047;-78
2022/11/14 20:18:52;;;;;;;6.68;5.47;;;;;;;16.37;63.63;100963.66;4793318;29;20395;-78
2022/11/14 20:21:20;;;;;;;8.07;5.78;;;;;;;16.36;63.41;100964.56;4781352;29;20058;-78
2022/11/14 20:23:46;;;;;;;6.63;5.68;;;;;;;16.36;63.67;100963.69;4796237;29;20127;-78
2022/11/14 20:26:13;;;;;;;6.65;5.50;;;;;;;16.34;63.47;100966.28;4795542;29;20462;-78
2022/11/14 20:28:40;;;;;;;6.50;5.60;;;;;;;16.34;63.23;100962.81;4810146;29;20039;-78
2022/11/14 20:31:15;;;;;;;7.68;5.88;;;;;;;16.33;63.43;100950.69;4794729;29;20115;-78
2022/11/14 20:33:43;;;;;;;7.15;5.90;;;;;;;16.33;63.39;100950.69;4810337;29;20039;-80
2022/11/14 20:36:15;;;;;;;7.35;6.00;;;;;;;16.32;63.29;100943.78;4794112;29;20038;-77
2022/11/14 20:38:41;;;;;;;6.50;5.90;;;;;;;16.31;63.53;100950.72;4811275;29;20077;-79
2022/11/14 20:41:06;;;;;;;7.43;6.60;;;;;;;16.31;62.98;100942.03;4794342;29;20035;-78
2022/11/14 20:43:33;;;;;;;7.82;6.00;;;;;;;16.30;63.32;100945.53;4780034;29;20038;-78
2022/11/14 20:46:04;;;;;;;6.85;5.78;;;;;;;16.30;63.56;100948.13;4795308;29;20049;-78
2022/11/14 20:48:32;;;;;;;6.90;6.20;;;;;;;16.29;63.36;100939.47;4800389;29;20062;-79
2022/11/14 20:51:07;;;;;;;6.45;5.85;;;;;;;16.29;63.05;100942.06;4801729;29;20069;-78
2022/11/14 20:53:33;;;;;;;7.03;6.32;;;;;;;16.28;63.12;100935.13;4800212;29;20464;-78
2022/11/14 20:55:59;;;;;;;6.93;6.10;;;;;;;16.28;63.21;100937.72;4798796;29;20070;-79
2022/11/14 20:58:27;;;;;;;8.13;6.38;;;;;;;16.28;63.26;100939.47;4797859;29;20038;-78
2022/11/14 21:00:53;;;;;;;7.70;5.97;;;;;;;16.28;63.18;100936.88;4805217;29;20054;-80
2022/11/14 21:03:22;;;;;;;7.30;6.57;;;;;;;16.28;63.23;100934.28;4790483;29;20039;-83
2022/11/14 21:05:48;;;;;;;9.00;6.40;;;;;;;16.28;63.44;100931.69;4807464;29;20042;-81
2022/11/14 21:08:15;;;;;;;7.20;6.50;;;;;;;16.26;63.52;100934.25;4814145;29;20037;-82
2022/11/14 21:10:49;;;;;;;8.02;6.72;;;;;;;16.26;63.61;100926.47;4815745;29;20031;-83
2022/11/14 21:16:12;;;;;;;8.52;6.53;;;;;;;16.26;63.28;100931.66;4830821;29;20030;-83
2022/11/14 21:18:38;;;;;;;7.67;6.67;;;;;;;16.28;63.34;100942.06;4825287;29;20031;-82
2022/11/14 21:21:14;;;;;;;7.07;6.07;;;;;;;16.26;63.33;100939.47;4829729;29;20039;-83
2022/11/14 21:23:43;;;;;;;6.85;6.05;;;;;;;16.25;63.29;100946.38;4829748;29;20064;-82
2022/11/14 21:26:23;;;;;;;6.75;6.05;;;;;;;16.25;63.29;100941.19;4830592;29;20081;-82
2022/11/14 21:28:51;;;;;;;6.85;6.15;;;;;;;16.27;63.13;100946.41;4813519;29;20067;-82
2022/11/14 21:31:24;;;;;;;6.97;6.22;;;;;;;16.25;63.41;100949.00;4832512;29;20050;-82
2022/11/14 21:33:56;;;;;;;7.05;5.95;;;;;;;16.25;63.17;100949.00;4848667;29;20054;-83
2022/11/14 21:36:23;;;;;;;7.53;6.50;;;;;;;16.25;63.14;100945.53;4848671;29;20079;-83
2022/11/14 21:38:54;;;;;;;7.00;6.22;;;;;;;16.26;63.28;100942.06;4848488;29;20018;-83
2022/11/14 21:42:03;;;;;;;6.90;6.20;;;;;;;16.26;63.21;100947.25;4863637;29;20054;-84
2022/11/14 21:51:34;;;;;;;6.70;6.00;;;;;;;16.23;63.10;100942.06;4849056;29;20098;-83
2022/11/14 21:57:56;;;;;;;7.43;6.57;;;;;;;16.24;62.88;100944.69;4849356;29;20108;-82
2022/11/14 22:01:04;;;;;;;8.65;6.35;;;;;;;16.24;62.69;100947.28;4822890;29;20010;-82
2022/11/14 22:10:18;;;;;;;8.75;6.72;;;;;;;16.23;62.83;100923.91;4824423;29;20436;-81
2022/11/14 22:15:54;;;;;;;8.23;6.95;;;;;;;16.22;62.80;100922.16;4824954;29;20079;-80
2022/11/14 22:18:24;;;;;;;7.25;6.53;;;;;;;16.21;62.82;100915.25;4822877;29;20109;-82
2022/11/14 22:47:42;;;;;;;12.77;7.72;;;;;;;16.27;62.97;100899.66;4844839;29;20060;-82
2022/11/14 22:50:32;;;;;;;11.20;7.82;;;;;;;16.27;63.02;100885.81;4844713;29;20042;-81
2022/11/14 22:53:19;;;;;;;9.70;7.80;;;;;;;16.28;63.08;100882.34;4841995;29;20119;-81
2022/11/14 22:55:53;;;;;;;9.27;7.50;;;;;;;16.28;62.94;100888.38;4796227;29;20049;-82
2022/11/14 22:58:21;;;;;;;9.73;7.82;;;;;;;16.28;62.85;100887.53;4825794;29;20049;-82
2022/11/14 23:00:47;;;;;;;11.63;8.25;;;;;;;16.28;62.83;100879.75;4840230;29;20045;-81
2022/11/14 23:03:46;;;;;;;9.52;7.78;;;;;;;16.28;62.95;100882.34;4842202;29;20046;-81
2022/11/14 23:09:53;;;;;;;10.32;7.18;;;;;;;16.27;62.87;100889.28;4843147;29;20151;-81
2022/11/14 23:12:40;;;;;;;9.20;7.50;;;;;;;16.25;62.64;100878.88;4803621;29;20043;-82
2022/11/14 23:15:46;;;;;;;10.98;7.72;;;;;;;16.26;62.89;100877.13;4788812;30;20039;-81
2022/11/14 23:18:33;;;;;;;10.20;7.70;;;;;;;16.24;62.93;100871.97;4774691;30;20039;-82
2022/11/14 23:21:32;;;;;;;13.35;7.60;;;;;;;16.24;62.89;100879.75;4785274;30;20103;-82
2022/11/14 23:25:01;;;;;;;10.45;7.50;;;;;;;16.26;62.76;100879.72;4750227;30;20045;-81
2022/11/14 23:27:51;;;;;;;10.38;7.68;;;;;;;16.24;62.96;100864.19;4750397;30;20068;-82
2022/11/14 23:34:18;;;;;;;10.75;7.50;;;;;;;16.25;62.44;100865.03;4733243;30;20040;-81
2022/11/14 23:36:46;;;;;;;8.30;7.07;;;;;;;16.25;63.11;100865.91;4732188;30;20049;-82